Time;durP1;ratioP1;P1;durP2;ratioP2;P2;SDS_P1;SDS_P2;PMS_P1;PMS_P2;Temp;Humidity;BMP_temperature;BMP_pressure;BME280_temperature;BME280_humidity;BME280_pressure;Samples;Min_cycle;Max_cycle;Signal;HPM_P1;HPM_P2
2023/06/14 00:00:16;;;;;;;4.50;1.65;;;;;;;15.67;72.69;100802.72;5167488;28;20038;-71
2023/06/14 00:02:47;;;;;;;2.45;1.38;;;;;;;15.77;72.51;100798.69;5169636;28;20026;-71
2023/06/14 00:05:17;;;;;;;4.68;1.60;;;;;;;15.63;73.03;100801.19;5167836;28;20038;-70
2023/06/14 00:07:48;;;;;;;3.17;1.50;;;;;;;15.71;72.61;100795.50;5169136;28;20129;-69
2023/06/14 00:10:19;;;;;;;6.32;1.60;;;;;;;15.79;72.51;100801.22;5168011;28;20034;-71
2023/06/14 00:12:49;;;;;;;3.40;1.50;;;;;;;15.85;72.54;100808.81;5168351;28;20459;-69
2023/06/14 00:15:19;;;;;;;5.18;1.60;;;;;;;15.66;73.33;100811.56;5160915;28;20027;-70
2023/06/14 00:17:50;;;;;;;4.97;1.23;;;;;;;15.62;72.99;100812.66;5168119;28;20049;-71
2023/06/14 00:20:20;;;;;;;8.38;1.55;;;;;;;15.15;74.96;100819.47;5167058;28;20045;-70
2023/06/14 00:22:51;;;;;;;2.15;1.40;;;;;;;15.15;75.14;100810.72;5168881;28;20487;-70
2023/06/14 00:25:25;;;;;;;4.47;1.58;;;;;;;15.12;75.29;100819.63;5167651;28;20026;-71
2023/06/14 00:27:56;;;;;;;3.80;1.67;;;;;;;15.26;74.59;100811.88;5168376;28;20384;-71
2023/06/14 00:30:30;;;;;;;4.35;1.45;;;;;;;15.40;74.19;100813.84;5164630;28;20428;-70
2023/06/14 00:33:00;;;;;;;3.58;1.30;;;;;;;15.15;75.37;100814.19;5167318;28;20034;-70
2023/06/14 00:38:05;;;;;;;6.60;1.70;;;;;;;14.83;76.43;100811.47;5182440;28;20050;-74
2023/06/14 00:40:35;;;;;;;3.08;1.40;;;;;;;14.96;76.85;100813.41;5188197;28;20585;-75
2023/06/14 00:43:05;;;;;;;3.05;1.52;;;;;;;14.94;76.63;100810.00;5185209;28;20030;-74
2023/06/14 00:45:36;;;;;;;3.05;1.70;;;;;;;15.03;75.87;100813.97;5179451;28;20029;-74
2023/06/14 00:48:07;;;;;;;2.33;1.23;;;;;;;15.09;75.83;100811.88;5182042;28;20500;-75
2023/06/14 00:50:38;;;;;;;2.47;1.42;;;;;;;15.08;75.68;100815.44;5190631;28;20052;-73
2023/06/14 00:53:08;;;;;;;3.85;1.35;;;;;;;15.14;75.44;100798.47;5187529;28;20025;-74
2023/06/14 00:55:38;;;;;;;3.47;1.27;;;;;;;15.33;75.06;100802.75;5191105;28;20060;-75
2023/06/14 00:58:10;;;;;;;3.67;1.23;;;;;;;15.26;74.96;100808.38;5169058;28;20025;-74
2023/06/14 01:00:40;;;;;;;2.15;1.10;;;;;;;15.31;75.10;100804.63;5190910;28;20148;-75
2023/06/14 01:03:12;;;;;;;1.75;1.10;;;;;;;15.40;74.40;100804.13;5185896;28;20109;-74
2023/06/14 01:05:44;;;;;;;2.13;1.10;;;;;;;15.24;75.51;100811.13;5185740;28;20445;-74
2023/06/14 01:08:45;;;;;;;5.18;1.30;;;;;;;15.28;75.51;100809.16;5186138;28;20037;-74
2023/06/14 01:11:25;;;;;;;3.10;1.58;;;;;;;15.20;76.05;100801.63;5166662;28;20041;-75
2023/06/14 01:13:56;;;;;;;4.22;1.10;;;;;;;15.05;76.30;100806.84;5175857;28;20483;-74
2023/06/14 01:16:28;;;;;;;3.03;1.25;;;;;;;14.92;77.06;100811.00;5187562;28;20113;-73
2023/06/14 01:18:58;;;;;;;3.97;2.08;;;;;;;14.91;77.82;100810.16;5187658;28;20032;-74
2023/06/14 01:21:29;;;;;;;2.05;1.00;;;;;;;14.94;77.43;100815.28;5186347;28;20033;-73
2023/06/14 01:24:03;;;;;;;2.40;1.15;;;;;;;14.95;77.41;100811.72;5187961;28;20049;-74
2023/06/14 01:26:33;;;;;;;1.70;0.93;;;;;;;14.82;78.12;100808.91;5189640;28;20509;-75
2023/06/14 01:29:04;;;;;;;3.65;1.10;;;;;;;14.86;77.78;100812.16;5187816;28;20025;-74
2023/06/14 01:31:41;;;;;;;8.98;2.55;;;;;;;14.94;77.86;100807.38;5185295;28;20045;-74
2023/06/14 01:34:11;;;;;;;3.88;1.02;;;;;;;14.94;77.72;100809.16;5192654;28;20030;-73
2023/06/14 01:36:43;;;;;;;2.83;0.88;;;;;;;14.88;78.46;100807.66;5194845;28;20029;-73
2023/06/14 01:39:15;;;;;;;3.55;1.20;;;;;;;14.86;78.45;100806.88;5173020;28;20443;-74
2023/06/14 01:41:47;;;;;;;2.22;1.15;;;;;;;14.80;78.92;100813.41;5191187;28;20390;-73
2023/06/14 01:44:18;;;;;;;2.85;1.30;;;;;;;14.86;79.36;100817.41;5191673;28;20101;-75
2023/06/14 01:46:49;;;;;;;1.92;1.05;;;;;;;14.93;78.38;100824.09;5193897;28;20092;-71
2023/06/14 01:49:20;;;;;;;1.85;1.13;;;;;;;14.91;78.93;100815.44;5194519;28;20029;-73
2023/06/14 01:51:50;;;;;;;6.55;1.30;;;;;;;14.99;78.93;100815.06;5193950;28;20025;-73
2023/06/14 01:54:21;;;;;;;2.78;1.20;;;;;;;14.73;79.04;100825.16;5196355;28;20446;-73
2023/06/14 01:56:52;;;;;;;4.72;1.30;;;;;;;14.78;79.64;100821.34;5187550;28;20029;-73
2023/06/14 01:59:22;;;;;;;2.25;1.20;;;;;;;14.82;78.62;100822.06;5194344;28;20080;-73
2023/06/14 02:01:52;;;;;;;1.92;1.08;;;;;;;14.67;79.35;100820.16;5190246;28;20116;-75
2023/06/14 02:04:22;;;;;;;4.40;1.20;;;;;;;14.38;80.92;100829.44;5189541;28;20037;-75
2023/06/14 02:06:53;;;;;;;5.85;1.20;;;;;;;14.38;81.13;100823.31;5170581;28;20092;-74
2023/06/14 02:09:23;;;;;;;1.50;1.02;;;;;;;14.73;79.97;100820.72;5191270;28;20029;-75
2023/06/14 02:11:53;;;;;;;3.80;1.33;;;;;;;14.83;78.67;100820.19;5193968;28;20541;-74
2023/06/14 02:14:24;;;;;;;2.42;1.30;;;;;;;14.72;78.26;100823.41;5193203;28;20084;-74
2023/06/14 02:16:54;;;;;;;2.92;1.48;;;;;;;14.68;78.76;100832.41;5194446;28;20475;-72
2023/06/14 02:19:25;;;;;;;2.63;1.20;;;;;;;14.50;79.79;100830.66;5175571;28;20022;-74
2023/06/14 02:21:55;;;;;;;2.35;1.25;;;;;;;14.52;79.61;100826.16;5195535;28;20475;-74
2023/06/14 02:24:25;;;;;;;4.72;2.42;;;;;;;14.26;79.75;100832.66;5191833;28;20044;-74
2023/06/14 02:26:55;;;;;;;2.03;1.20;;;;;;;14.26;80.06;100831.81;5192245;28;20033;-71
2023/06/14 02:29:26;;;;;;;2.58;1.45;;;;;;;14.06;81.31;100823.97;5191205;28;20133;-73
2023/06/14 02:31:56;;;;;;;3.15;1.40;;;;;;;14.03;81.91;100826.69;5188066;28;20500;-74
2023/06/14 02:34:27;;;;;;;3.83;1.50;;;;;;;13.99;83.16;100831.25;5189104;28;20030;-74
2023/06/14 02:36:57;;;;;;;2.35;1.30;;;;;;;13.95;82.88;100828.84;5189876;28;20108;-72
2023/06/14 02:39:27;;;;;;;2.95;1.67;;;;;;;14.00;81.62;100821.59;5171629;28;20030;-74
2023/06/14 02:41:58;;;;;;;6.50;1.50;;;;;;;13.92;81.52;100832.44;5192020;28;20387;-73
2023/06/14 02:44:29;;;;;;;2.72;1.55;;;;;;;13.77;84.22;100829.66;5192888;28;20026;-73
2023/06/14 02:47:00;;;;;;;2.60;1.40;;;;;;;13.85;83.44;100827.53;5174243;28;20048;-74
2023/06/14 02:49:31;;;;;;;6.03;1.60;;;;;;;13.64;83.46;100839.88;5174576;28;20029;-73
2023/06/14 02:52:02;;;;;;;5.68;1.63;;;;;;;13.34;85.57;100845.56;5192934;28;20114;-73
2023/06/14 02:54:32;;;;;;;7.15;1.80;;;;;;;13.28;86.23;100845.81;5192555;28;20029;-73
2023/06/14 02:57:03;;;;;;;3.03;1.60;;;;;;;13.11;87.30;100845.69;5191283;28;20079;-72
2023/06/14 02:59:35;;;;;;;4.60;1.80;;;;;;;12.71;89.15;100852.56;5175350;28;20033;-73
2023/06/14 03:02:05;;;;;;;3.13;1.65;;;;;;;12.53;90.54;100858.53;5186041;28;20036;-74
2023/06/14 03:04:37;;;;;;;3.60;1.40;;;;;;;12.56;89.38;100853.16;5188618;28;20411;-74
2023/06/14 03:07:10;;;;;;;5.43;1.80;;;;;;;12.51;90.71;100858.63;5190289;28;20017;-73
2023/06/14 03:09:41;;;;;;;2.75;1.60;;;;;;;12.42;90.61;100861.59;5173053;28;20033;-75
2023/06/14 03:12:11;;;;;;;3.28;1.67;;;;;;;12.60;90.04;100863.50;5188909;28;20037;-73
2023/06/14 03:14:42;;;;;;;3.47;1.50;;;;;;;12.61;90.51;100873.06;5193834;28;20031;-74
2023/06/14 03:17:12;;;;;;;5.85;1.38;;;;;;;12.67;90.27;100871.97;5188358;28;20038;-71
2023/06/14 03:19:43;;;;;;;2.90;1.27;;;;;;;12.61;90.73;100882.72;5176905;28;20045;-74
2023/06/14 03:22:13;;;;;;;4.35;1.42;;;;;;;12.65;91.07;100890.38;5191573;28;20040;-74
2023/06/14 03:24:44;;;;;;;2.60;1.33;;;;;;;12.74;89.88;100884.78;5191819;28;20021;-74
2023/06/14 03:27:15;;;;;;;2.85;1.48;;;;;;;12.95;88.90;100883.97;5192165;28;20455;-74
2023/06/14 03:29:46;;;;;;;3.38;1.75;;;;;;;13.20;87.99;100882.91;5193119;28;20111;-74
2023/06/14 03:32:16;;;;;;;4.50;1.58;;;;;;;13.37;87.02;100882.22;5187479;28;21053;-75
2023/06/14 03:34:46;;;;;;;2.28;1.40;;;;;;;13.53;86.50;100891.13;5194289;28;20040;-74
2023/06/14 03:37:17;;;;;;;3.33;1.50;;;;;;;13.54;86.21;100890.22;5191585;28;20033;-74
2023/06/14 03:39:47;;;;;;;2.10;1.40;;;;;;;13.72;85.37;100892.06;5194304;28;20272;-74
2023/06/14 03:42:17;;;;;;;2.35;1.27;;;;;;;13.72;84.99;100892.06;5188852;28;20479;-74
2023/06/14 03:44:48;;;;;;;7.60;1.25;;;;;;;13.68;84.99;100904.47;5193706;28;20384;-70
2023/06/14 03:47:18;;;;;;;2.33;1.33;;;;;;;13.86;85.02;100902.81;5172676;28;20045;-72
2023/06/14 03:49:48;;;;;;;3.28;1.30;;;;;;;13.83;84.85;100897.69;5176478;28;20021;-70
2023/06/14 03:52:18;;;;;;;3.53;1.50;;;;;;;13.84;84.38;100905.53;5188614;28;20034;-74
2023/06/14 03:54:49;;;;;;;4.50;1.50;;;;;;;13.65;85.83;100907.22;5189936;28;20079;-73
2023/06/14 03:57:20;;;;;;;3.53;1.40;;;;;;;13.78;85.84;100905.75;5188241;28;20036;-74
2023/06/14 03:59:50;;;;;;;3.05;1.38;;;;;;;13.75;85.37;100907.69;5184478;28;20036;-75
2023/06/14 04:02:22;;;;;;;2.20;1.38;;;;;;;13.75;85.98;100915.56;5190602;28;20033;-74
2023/06/14 04:04:54;;;;;;;2.42;1.30;;;;;;;13.52;87.25;100916.53;5188366;28;20099;-73
2023/06/14 04:07:24;;;;;;;2.85;1.27;;;;;;;13.43;88.28;100914.28;5169116;28;20079;-74
2023/06/14 04:09:55;;;;;;;2.42;1.42;;;;;;;13.49;87.86;100918.44;5173764;28;20478;-74
2023/06/14 04:12:25;;;;;;;2.80;1.45;;;;;;;13.48;88.81;100909.72;5186765;28;20038;-74
2023/06/14 04:14:56;;;;;;;2.53;1.30;;;;;;;13.42;89.04;100911.75;5186560;28;20038;-74
2023/06/14 04:17:26;;;;;;;3.42;1.25;;;;;;;13.69;88.97;100915.81;5186144;28;20068;-74
2023/06/14 04:19:58;;;;;;;3.25;1.48;;;;;;;13.79;87.70;100918.00;5190159;28;20037;-74
2023/06/14 04:22:28;;;;;;;3.03;1.48;;;;;;;13.66;88.46;100922.06;5194949;28;20030;-75
2023/06/14 04:24:59;;;;;;;7.00;1.50;;;;;;;13.62;88.88;100924.88;5193163;28;20025;-74
2023/06/14 04:27:31;;;;;;;2.40;1.40;;;;;;;13.89;88.54;100915.84;5190722;28;20048;-75
2023/06/14 04:30:02;;;;;;;3.83;1.67;;;;;;;14.12;87.16;100918.28;5193563;28;20108;-73
2023/06/14 04:32:38;;;;;;;2.72;1.67;;;;;;;14.18;86.79;100925.94;5186693;28;20087;-74
2023/06/14 04:35:09;;;;;;;2.90;1.40;;;;;;;14.41;86.88;100917.88;5185214;28;20021;-74
2023/06/14 04:37:41;;;;;;;4.05;1.33;;;;;;;14.69;85.51;100920.91;5191992;28;20083;-74
2023/06/14 04:40:11;;;;;;;2.85;1.30;;;;;;;15.04;84.76;100920.97;5186852;28;20033;-72
2023/06/14 04:42:44;;;;;;;6.90;1.98;;;;;;;16.13;81.07;100915.38;5171495;28;20091;-74
2023/06/14 04:45:16;;;;;;;4.03;1.45;;;;;;;17.00;77.45;100919.28;5189789;28;20030;-74
2023/06/14 04:47:46;;;;;;;2.97;1.10;;;;;;;19.57;68.19;100897.00;5193378;28;20018;-74
2023/06/14 04:50:17;;;;;;;4.43;1.60;;;;;;;20.19;65.39;100900.69;5190298;28;20229;-71
2023/06/14 04:52:51;;;;;;;2.78;1.27;;;;;;;20.53;65.43;100895.56;5195179;28;20037;-75
2023/06/14 04:55:21;;;;;;;3.75;1.50;;;;;;;20.48;64.54;100896.84;5191646;28;20042;-74
2023/06/14 04:57:53;;;;;;;1.97;1.30;;;;;;;20.40;64.60;100901.81;5185452;28;20021;-74
2023/06/14 05:00:23;;;;;;;2.13;1.10;;;;;;;21.04;62.99;100892.66;5186386;28;20335;-75
2023/06/14 05:02:53;;;;;;;2.30;1.00;;;;;;;22.83;59.42;100893.63;5189984;28;20021;-76
2023/06/14 05:05:24;;;;;;;2.37;1.30;;;;;;;23.61;57.67;100887.09;5183684;28;20273;-75
2023/06/14 05:07:55;;;;;;;2.33;1.05;;;;;;;24.16;56.06;100892.13;5170802;28;20276;-74
2023/06/14 05:10:25;;;;;;;1.87;1.00;;;;;;;24.79;55.24;100895.34;5184987;28;20547;-74
2023/06/14 05:12:56;;;;;;;1.92;1.02;;;;;;;24.85;55.02;100904.66;5192966;28;20284;-75
2023/06/14 05:15:26;;;;;;;1.75;1.10;;;;;;;23.81;55.72;100907.63;5185409;28;20061;-76
2023/06/14 05:17:56;;;;;;;4.03;1.20;;;;;;;25.16;53.90;100898.25;5184923;28;20026;-75
2023/06/14 05:20:27;;;;;;;3.08;1.15;;;;;;;23.84;57.08;100917.22;5188754;28;20574;-74
2023/06/14 05:22:57;;;;;;;2.15;1.20;;;;;;;24.96;54.17;100902.72;5190262;28;20026;-73
2023/06/14 05:25:28;;;;;;;7.93;1.50;;;;;;;24.02;55.65;100916.50;5192296;28;20080;-76
2023/06/14 05:27:58;;;;;;;2.63;1.25;;;;;;;;;;5192894;28;20051;-75
2023/06/14 05:30:30;;;;;;;2.80;1.43;;;;;;;23.64;57.54;100924.22;5192655;28;20033;-75
2023/06/14 05:33:00;;;;;;;2.38;1.50;;;;;;;23.38;57.85;100928.19;5190113;28;20029;-77
2023/06/14 05:35:31;;;;;;;3.05;1.23;;;;;;;22.17;59.26;100931.88;5191773;28;20029;-75
2023/06/14 05:38:01;;;;;;;3.27;1.40;;;;;;;21.95;60.45;100923.88;5190573;28;20502;-75
2023/06/14 05:40:31;;;;;;;3.75;1.60;;;;;;;22.43;59.78;100928.09;5192668;28;20276;-75
2023/06/14 05:43:02;;;;;;;3.30;1.50;;;;;;;21.70;61.94;100940.00;5192846;28;20087;-75
2023/06/14 05:45:32;;;;;;;3.47;1.50;;;;;;;21.59;62.84;100943.44;5172682;28;20286;-75
2023/06/14 05:48:02;;;;;;;2.78;1.40;;;;;;;20.88;63.64;100944.38;5186739;28;20116;-74
2023/06/14 05:50:33;;;;;;;3.88;1.55;;;;;;;20.66;64.56;100943.34;5189012;28;20029;-74
2023/06/14 05:53:03;;;;;;;2.85;1.50;;;;;;;20.68;65.66;100943.13;5185968;28;20030;-75
2023/06/14 05:55:34;;;;;;;3.25;1.60;;;;;;;20.23;66.72;100953.47;5192723;28;20029;-75
2023/06/14 05:58:04;;;;;;;3.38;1.48;;;;;;;20.41;66.07;100938.03;5192274;28;20017;-74
2023/06/14 06:00:35;;;;;;;5.00;1.60;;;;;;;20.99;64.12;100942.66;5183137;28;20098;-72
2023/06/14 06:03:08;;;;;;;2.65;1.50;;;;;;;21.40;63.99;100942.28;5187391;28;20031;-74
2023/06/14 06:05:38;;;;;;;2.63;1.50;;;;;;;20.83;64.85;100930.53;5182083;28;20068;-76
2023/06/14 06:08:08;;;;;;;2.70;1.40;;;;;;;20.84;64.69;100937.56;5178880;28;20438;-75
2023/06/14 06:10:39;;;;;;;3.95;1.50;;;;;;;20.40;65.36;100947.81;5183848;28;20041;-75
2023/06/14 06:13:09;;;;;;;5.28;1.40;;;;;;;20.42;65.48;100950.34;5182567;28;20041;-75
2023/06/14 06:15:40;;;;;;;4.32;1.50;;;;;;;20.56;65.34;100932.50;5165125;28;20517;-76
2023/06/14 06:18:10;;;;;;;2.95;1.30;;;;;;;21.24;64.02;100939.88;5180621;28;20033;-75
2023/06/14 06:20:40;;;;;;;2.80;1.57;;;;;;;21.41;64.32;100942.16;5183602;28;20055;-71
2023/06/14 06:23:11;;;;;;;2.33;1.50;;;;;;;21.57;63.40;100945.34;5190897;28;20268;-74
2023/06/14 06:25:42;;;;;;;2.33;1.42;;;;;;;20.84;64.45;100943.75;5191725;28;20582;-75
2023/06/14 06:28:12;;;;;;;6.90;1.58;;;;;;;21.08;64.53;100952.59;5169978;28;20072;-74
2023/06/14 06:30:43;;;;;;;20.27;1.80;;;;;;;21.40;63.63;100943.09;5172211;28;20025;-74
2023/06/14 06:33:14;;;;;;;3.13;1.60;;;;;;;21.29;64.23;100961.69;5184089;28;20034;-75
2023/06/14 06:38:14;;;;;;;1.93;1.40;;;;;;;21.28;63.34;100970.63;5228403;22;20037;-71
2023/06/14 06:40:44;;;;;;;2.67;1.80;;;;;;;20.91;64.34;100970.75;5209417;28;20502;-70
2023/06/14 06:43:16;;;;;;;6.25;1.70;;;;;;;21.58;63.00;100960.34;5209636;28;20087;-71
2023/06/14 06:45:47;;;;;;;3.95;1.80;;;;;;;21.63;62.65;100962.72;5212581;28;20024;-71
2023/06/14 06:48:17;;;;;;;3.55;1.63;;;;;;;21.57;63.79;100965.81;5207306;28;20037;-70
2023/06/14 06:50:47;;;;;;;2.75;1.50;;;;;;;21.95;62.75;100971.78;5206035;28;20048;-70
2023/06/14 06:53:18;;;;;;;2.87;1.70;;;;;;;22.00;61.57;100958.97;5210463;28;20615;-70
2023/06/14 06:55:48;;;;;;;2.22;1.42;;;;;;;22.27;60.95;100979.00;5213835;28;20306;-70
2023/06/14 06:58:19;;;;;;;3.40;1.60;;;;;;;22.44;61.49;100981.22;5195307;28;20056;-71
2023/06/14 07:00:49;;;;;;;2.50;1.52;;;;;;;22.03;60.67;100982.69;5213060;28;20218;-71
2023/06/14 07:03:20;;;;;;;2.47;1.50;;;;;;;22.08;60.35;100984.03;5208671;28;20017;-71
2023/06/14 07:05:50;;;;;;;3.33;1.50;;;;;;;22.20;60.97;100976.91;5213380;28;20363;-72
2023/06/14 07:08:20;;;;;;;2.67;1.33;;;;;;;23.04;58.95;100985.22;5209433;28;20386;-70
2023/06/14 07:10:51;;;;;;;4.15;1.25;;;;;;;22.73;59.32;100981.63;5212896;28;20271;-71
2023/06/14 07:13:21;;;;;;;2.23;1.20;;;;;;;23.64;57.52;100977.59;5208954;28;20528;-71
2023/06/14 07:15:55;;;;;;;2.05;1.20;;;;;;;22.74;59.47;100981.50;5207499;28;20272;-72
2023/06/14 07:18:25;;;;;;;3.92;1.42;;;;;;;23.89;57.76;100979.94;5207440;28;20383;-72
2023/06/14 07:20:56;;;;;;;5.22;1.40;;;;;;;22.95;59.12;100988.66;5211899;28;20052;-72
2023/06/14 07:23:28;;;;;;;4.07;1.63;;;;;;;23.59;57.85;100995.81;5209789;28;20026;-72
2023/06/14 07:25:58;;;;;;;2.28;1.30;;;;;;;23.65;57.73;100984.63;5210606;28;20048;-71
2023/06/14 07:28:28;;;;;;;2.47;1.40;;;;;;;23.86;55.95;100982.88;5209891;28;20025;-72
2023/06/14 07:30:58;;;;;;;2.13;1.00;;;;;;;23.00;57.43;100981.13;5210568;28;20279;-71
2023/06/14 07:33:29;;;;;;;2.70;1.15;;;;;;;22.76;57.12;100990.22;5207675;28;20296;-71
2023/06/14 07:35:59;;;;;;;4.20;1.20;;;;;;;23.08;56.65;100980.50;5210855;28;20035;-70
2023/06/14 07:38:30;;;;;;;2.63;1.40;;;;;;;23.69;56.09;100977.22;5210034;28;20036;-71
2023/06/14 07:41:00;;;;;;;2.00;1.08;;;;;;;24.11;55.48;100987.00;5210327;28;20028;-71
2023/06/14 07:43:31;;;;;;;4.47;1.23;;;;;;;24.15;55.67;100983.06;5208709;28;20124;-72
2023/06/14 07:46:02;;;;;;;3.43;1.10;;;;;;;24.35;54.70;100972.38;5204592;28;20059;-71
2023/06/14 07:48:32;;;;;;;1.77;0.85;;;;;;;24.67;55.09;100979.31;5203207;28;20545;-72
2023/06/14 07:51:02;;;;;;;2.40;1.30;;;;;;;24.29;54.02;100974.72;5209917;28;20099;-71
2023/06/14 07:53:32;;;;;;;4.60;1.20;;;;;;;25.04;53.61;100968.91;5211864;28;20287;-71
2023/06/14 07:56:03;;;;;;;1.87;1.23;;;;;;;25.90;52.39;100964.56;5211058;28;20877;-72
2023/06/14 07:58:33;;;;;;;2.20;1.13;;;;;;;23.49;55.04;100984.19;5205838;28;20297;-70
2023/06/14 08:01:06;;;;;;;2.50;1.20;;;;;;;24.33;54.70;100982.38;5207819;28;20193;-71
2023/06/14 08:03:36;;;;;;;4.30;1.25;;;;;;;;;;5203318;28;20033;-71
2023/06/14 08:06:07;;;;;;;1.42;0.98;;;;;;;25.07;53.66;100968.63;5204803;28;20542;-71
2023/06/14 08:08:37;;;;;;;1.65;1.10;;;;;;;25.03;52.73;100983.28;5204274;28;20498;-72
2023/06/14 08:11:07;;;;;;;7.28;1.40;;;;;;;25.97;51.60;100971.06;5203041;28;20029;-72
2023/06/14 08:13:38;;;;;;;2.77;1.30;;;;;;;25.25;51.83;100972.38;5209980;28;20048;-71
2023/06/14 08:16:08;;;;;;;4.87;1.50;;;;;;;25.66;51.52;100961.44;5208405;28;20287;-70
2023/06/14 08:18:38;;;;;;;5.43;1.20;;;;;;;25.18;52.08;100979.25;5204707;28;20708;-70
2023/06/14 08:21:09;;;;;;;2.97;1.00;;;;;;;24.83;53.49;100977.00;5202295;28;20025;-71
2023/06/14 08:23:39;;;;;;;1.25;1.00;;;;;;;26.59;50.38;100963.31;5206224;28;20295;-70
2023/06/14 08:26:10;;;;;;;3.20;1.30;;;;;;;26.28;50.77;100964.50;5202803;28;20083;-71
2023/06/14 08:28:41;;;;;;;2.70;1.00;;;;;;;26.81;50.86;100967.34;5210354;28;20417;-71
2023/06/14 08:31:11;;;;;;;1.88;0.90;;;;;;;25.78;49.59;100968.31;5205594;28;20121;-69
2023/06/14 08:33:43;;;;;;;6.20;0.95;;;;;;;26.13;50.16;100968.59;5198683;28;20546;-71
2023/06/14 08:36:13;;;;;;;2.45;1.00;;;;;;;25.48;51.68;100968.47;5207875;28;20067;-70
2023/06/14 08:38:44;;;;;;;3.55;1.30;;;;;;;24.71;54.03;100976.41;5208251;28;20056;-70
2023/06/14 08:41:21;;;;;;;1.65;0.90;;;;;;;24.86;52.09;100978.56;5210057;28;20088;-70
2023/06/14 08:43:52;;;;;;;2.63;1.00;;;;;;;25.49;52.24;100968.31;5208278;28;20032;-70
2023/06/14 08:46:27;;;;;;;1.52;0.93;;;;;;;27.14;49.44;100966.72;5211016;28;20110;-70
2023/06/14 08:48:58;;;;;;;1.88;0.80;;;;;;;26.47;49.77;100975.16;5212146;28;20025;-70
2023/06/14 08:51:33;;;;;;;1.60;0.82;;;;;;;25.47;49.80;100978.31;5207590;28;20613;-68
2023/06/14 08:54:04;;;;;;;;;;;;;;;25.79;50.48;100973.56;5209091;28;20120;-70
2023/06/14 08:56:37;;;;;;;1.90;1.00;;;;;;;26.94;49.83;100965.13;5211076;28;20392;-70
2023/06/14 08:59:09;;;;;;;3.95;1.00;;;;;;;26.92;48.47;100961.75;5212844;28;20037;-71
2023/06/14 09:01:39;;;;;;;2.90;0.93;;;;;;;27.64;47.99;100953.69;5211813;28;20037;-69
2023/06/14 09:04:10;;;;;;;1.55;1.10;;;;;;;26.51;48.93;100964.03;5206940;28;20511;-70
2023/06/14 09:06:40;;;;;;;2.37;1.00;;;;;;;26.76;48.86;100958.03;5215479;28;20052;-70
2023/06/14 09:09:11;;;;;;;3.10;1.10;;;;;;;25.89;50.42;100966.41;5192294;28;20033;-70
2023/06/14 09:11:42;;;;;;;2.30;0.95;;;;;;;26.68;49.59;100970.50;5212313;28;20028;-70
2023/06/14 09:14:12;;;;;;;3.35;1.20;;;;;;;26.70;48.81;100965.81;5209396;28;20376;-70
2023/06/14 09:16:42;;;;;;;4.47;1.23;;;;;;;26.82;49.05;100958.28;5197435;28;20024;-70
2023/06/14 09:19:25;;;;;;;2.05;1.17;;;;;;;27.31;48.83;100963.25;5208793;28;20499;-70
2023/06/14 09:21:55;;;;;;;2.42;0.98;;;;;;;27.18;48.61;100954.72;5209485;28;20025;-70
2023/06/14 09:24:26;;;;;;;1.30;1.00;;;;;;;26.89;49.36;100962.06;5212721;28;20373;-70
2023/06/14 09:26:57;;;;;;;1.45;0.90;;;;;;;28.61;47.52;100959.69;5207318;28;20286;-69
2023/06/14 09:29:28;;;;;;;1.67;1.00;;;;;;;28.41;47.27;100960.91;5205696;28;20025;-71
2023/06/14 09:31:58;;;;;;;3.27;1.13;;;;;;;28.87;47.27;100955.09;5210645;28;20621;-70
2023/06/14 09:34:29;;;;;;;2.85;1.00;;;;;;;27.86;47.21;100966.66;5210867;28;20342;-70
2023/06/14 09:36:59;;;;;;;1.60;1.10;;;;;;;27.68;47.62;100971.19;5208128;28;20499;-70
2023/06/14 09:39:29;;;;;;;2.42;1.20;;;;;;;26.97;48.14;100959.44;5212074;28;20287;-70
2023/06/14 09:42:00;;;;;;;2.15;1.00;;;;;;;25.69;50.25;100962.00;5210849;28;20062;-70
2023/06/14 09:44:30;;;;;;;1.80;1.00;;;;;;;25.71;51.05;100959.19;5213820;28;20093;-70
2023/06/14 09:47:02;;;;;;;1.75;1.27;;;;;;;25.00;51.70;100972.84;5205938;28;20040;-70
2023/06/14 09:49:34;;;;;;;4.80;1.45;;;;;;;24.95;52.24;100975.09;5211130;28;20037;-70
2023/06/14 09:52:06;;;;;;;4.03;1.15;;;;;;;25.40;51.25;100973.66;5203726;28;20053;-70
2023/06/14 09:54:46;;;;;;;2.53;1.13;;;;;;;25.01;51.78;100964.66;5211020;28;20443;-71
2023/06/14 09:57:22;;;;;;;3.78;1.30;;;;;;;24.82;53.29;100963.78;5208690;28;20104;-70
2023/06/14 09:59:59;;;;;;;1.90;1.20;;;;;;;26.19;51.85;100958.16;5210059;28;20031;-70
2023/06/14 10:02:35;;;;;;;1.80;1.20;;;;;;;27.14;49.18;100961.38;5187454;28;20052;-71
2023/06/14 10:05:11;;;;;;;2.35;1.10;;;;;;;27.18;49.49;100953.88;5205743;28;20032;-71
2023/06/14 10:07:48;;;;;;;2.30;0.98;;;;;;;25.98;50.67;100952.13;5207092;28;20064;-70
2023/06/14 10:10:18;;;;;;;5.18;1.17;;;;;;;24.56;53.47;100957.19;5205503;28;20022;-69
2023/06/14 10:12:49;;;;;;;4.75;1.27;;;;;;;24.89;53.31;100957.75;5209097;28;20067;-69
2023/06/14 10:15:42;;;;;;;1.42;1.05;;;;;;;24.99;53.84;100957.78;5207676;28;20021;-70
2023/06/14 10:18:34;;;;;;;2.70;1.30;;;;;;;23.68;54.45;100963.00;5203661;28;20037;-70
2023/06/14 10:21:18;;;;;;;3.70;1.60;;;;;;;23.35;55.10;100967.63;5210271;28;20032;-72
2023/06/14 10:23:50;;;;;;;3.75;1.15;;;;;;;23.59;54.61;100958.47;5211817;28;20036;-72
2023/06/14 10:26:22;;;;;;;5.47;1.30;;;;;;;24.51;53.91;100956.72;5210982;28;20078;-72
2023/06/14 10:29:07;;;;;;;3.13;1.35;;;;;;;22.93;56.69;100955.94;5205983;28;20025;-72
2023/06/14 10:31:55;;;;;;;2.70;1.63;;;;;;;22.46;56.60;100967.81;5209269;28;20067;-70
2023/06/14 10:34:27;;;;;;;20.88;2.90;;;;;;;23.19;56.80;100964.53;5206410;28;20033;-72
2023/06/14 10:37:13;;;;;;;3.50;1.30;;;;;;;22.81;57.68;100962.22;5209720;28;20059;-71
2023/06/14 10:39:47;;;;;;;;;;;;;;;23.02;56.55;100943.66;5211176;28;20036;-72
2023/06/14 10:42:18;;;;;;;5.43;1.75;;;;;;;24.14;55.24;100947.50;5196159;28;19913;-72
2023/06/14 10:44:57;;;;;;;3.20;1.30;;;;;;;24.35;54.07;100940.31;5210676;28;20119;-71
2023/06/14 10:47:34;;;;;;;3.08;1.48;;;;;;;24.75;54.50;100941.22;5204993;28;20095;-72
2023/06/14 10:50:10;;;;;;;5.35;1.70;;;;;;;23.84;55.29;100941.25;5206745;28;20028;-71
2023/06/14 10:52:43;;;;;;;5.68;1.67;;;;;;;24.15;55.60;100937.66;5210840;28;20119;-71
2023/06/14 10:55:18;;;;;;;3.80;1.50;;;;;;;23.97;55.81;100936.56;5209546;28;20061;-72
2023/06/14 10:57:56;;;;;;;2.47;1.45;;;;;;;23.67;55.49;100931.94;5208387;28;20491;-71
2023/06/14 11:00:29;;;;;;;3.90;1.48;;;;;;;23.63;55.63;100933.19;5206765;28;20120;-72
2023/06/14 11:03:08;;;;;;;7.18;1.35;;;;;;;23.36;56.24;100930.13;5206833;28;20100;-72
2023/06/14 11:05:47;;;;;;;4.63;1.58;;;;;;;23.63;55.98;100932.34;5211640;28;20459;-72
2023/06/14 11:08:29;;;;;;;5.05;2.00;;;;;;;23.49;57.60;100930.81;5208449;28;20082;-72
2023/06/14 11:11:00;;;;;;;2.38;1.50;;;;;;;23.70;57.73;100923.69;5205114;28;20025;-73
2023/06/14 11:13:31;;;;;;;2.63;1.70;;;;;;;22.87;58.36;100924.41;5209976;28;20557;-71
2023/06/14 11:16:01;;;;;;;6.03;1.80;;;;;;;23.11;59.08;100927.81;5208303;28;20040;-72
2023/06/14 11:18:31;;;;;;;4.07;1.90;;;;;;;22.69;60.41;100927.72;5208349;28;20366;-72
2023/06/14 11:21:02;;;;;;;3.53;1.67;;;;;;;22.53;59.78;100932.56;5210760;28;20056;-71
2023/06/14 11:23:32;;;;;;;6.53;1.95;;;;;;;22.73;60.30;100928.31;5212522;28;20028;-71
2023/06/14 11:26:04;;;;;;;7.75;1.90;;;;;;;22.73;59.53;100921.16;5207824;28;20025;-72
2023/06/14 11:28:41;;;;;;;4.50;1.60;;;;;;;22.83;59.47;100914.97;5211114;28;20249;-72
2023/06/14 11:31:11;;;;;;;3.05;2.00;;;;;;;22.95;59.54;100913.13;5205931;28;20045;-72
2023/06/14 11:33:42;;;;;;;3.03;1.60;;;;;;;22.85;59.62;100912.19;5204435;28;20557;-71
2023/06/14 11:36:12;;;;;;;2.20;1.70;;;;;;;22.99;58.58;100911.94;5204720;28;20051;-72
2023/06/14 11:38:43;;;;;;;2.95;1.58;;;;;;;22.79;57.96;100908.19;5212595;28;20032;-72
2023/06/14 11:41:14;;;;;;;6.60;1.80;;;;;;;23.00;58.76;100901.13;5207764;28;20036;-72
2023/06/14 11:43:44;;;;;;;2.63;1.50;;;;;;;22.78;59.68;100901.16;5212577;28;20485;-72
2023/06/14 11:46:21;;;;;;;5.82;2.10;;;;;;;22.63;60.45;100914.03;5208298;28;20194;-71
2023/06/14 11:48:52;;;;;;;4.85;1.92;;;;;;;22.58;58.95;100910.88;5199259;28;20083;-73
2023/06/14 11:51:23;;;;;;;6.55;2.08;;;;;;;22.91;59.14;100911.69;5208696;28;20048;-72